Windhoek, Namibia
Current Conditions -  °F | °C
As of 2:00 PM on Friday 28 Nov 2014 (Local Time) from FYWE Reporting Station
Few Clouds Few Clouds  
Wind Chill: 84°   Ceiling: Unl
Heat Index: 84°   Visibility: 6mi
Dew Point: 19°   Wind: 10mph
Humidity: 9%   Direction: 270°W
Pressure: 30.09"   Gusts: NA
Location:  22.56°S, 17.09°E
Report Text: FYWE 281300Z 27009KT 9999 FEW050 29/M07 Q1019
Loading
Personal Weather Stations






























Interactive Weather Map New forecast layout! Learn more

10-Day Weather Forecast

Advertisements
Track Severe Weather on mobile